Latest Coastal Weather Observations for Redcliffe

IDQ60701

Issued at 1:51 pm EST Wednesday 24 May 2017 (issued every 10 minutes, with the page automatically refreshed every 10 minutes)

About coastal observations | Map of coastal stations | Coastal observations for QLD | Marine services | Other Formats
Station Details ID: 040958 Name: REDCLIFFE Lat: -27.22 Lon: 153.09 Height: 12.6 m
Data from the previous 72 hours. | See also: Recent months at Redcliffe
Date/Time
EST
Temp
°C
Wind Pressure Rain since
9am
mm
Weather Cloud Vis
km
Sea
Height
m
Swell
Dir  Spd
kts
Gust
kts
hPa Trend Height
m
Period
s
Dir
24/01:30pm 24.2 ENE 7 7 1015.9 - 0.0 - - - - - - -
24/01:00pm 23.3 ENE 6 7 1016.4 - 0.0 - - - - - - -
24/12:30pm 22.9 E 5 6 1017.0 - 0.0 - - - - - - -
24/12:00pm 22.6 SE 5 5 1017.5 - 0.0 - - - - - - -
24/11:30am 21.9 E 5 6 1018.0 - 0.0 - - - - - - -
24/11:00am 22.1 ESE 5 6 1018.7 - 0.0 - - - - - - -
24/10:30am 21.5 SSE 6 7 1019.3 - 0.0 - - - - - - -
24/10:00am 21.0 SSE 6 7 1019.7 - 0.0 - - - - - - -
24/09:30am 21.0 SE 5 7 1020.0 - 0.0 - - - - - - -
24/09:00am 19.7 CALM 0 0 1019.8 - 0.2 - - - - - - -
24/08:30am 18.4 WNW 3 4 1019.8 - 0.2 - - - - - - -
24/08:00am 17.5 WSW 6 7 1019.7 - 0.2 - - - - - - -
24/07:30am 16.7 WSW 5 6 1019.7 - 0.2 - - - - - - -
24/07:00am 16.1 WSW 5 6 1019.4 - 0.2 - - - - - - -
24/06:30am 15.6 WSW 4 5 1019.2 - 0.2 - - - - - - -
24/06:00am 16.1 W 5 6 1019.2 - 0.2 - - - - - - -
24/05:30am 16.1 SW 3 4 1019.0 - 0.2 - - - - - - -
24/05:00am 16.2 SW 4 5 1018.7 - 0.2 - - - - - - -
24/04:30am 16.3 SW 7 9 1018.4 - 0.2 - - - - - - -
24/04:00am 16.4 WSW 7 8 1018.4 - 0.2 - - - - - - -
24/03:30am 16.2 WSW 6 7 1018.3 - 0.2 - - - - - - -
24/03:00am 16.5 W 6 7 1018.5 - 0.2 - - - - - - -
24/02:30am 16.8 W 6 6 1018.6 - 0.2 - - - - - - -
24/02:00am 17.0 W 5 6 1018.9 - 0.2 - - - - - - -
24/01:30am 17.2 W 5 7 1018.9 - 0.2 - - - - - - -
24/01:00am 17.3 W 5 6 1019.3 - 0.2 - - - - - - -
24/12:30am 17.3 WSW 5 6 1019.8 - 0.2 - - - - - - -
24/12:00am 17.6 WSW 6 6 1020.2 - 0.2 - - - - - - -
 
Date/Time
EST
Temp
°C
Wind Pressure Rain since
9am
mm
Weather Cloud Vis
km
Sea
Height
m
Swell
Dir  Spd
kts
Gust
kts
hPa Trend Height
m
Period
s
Dir
23/11:30pm 17.9 WSW 7 7 1020.5 - 0.2 - - - - - - -
23/11:00pm 18.0 WSW 6 7 1020.6 - 0.2 - - - - - - -
23/10:30pm 18.1 WSW 6 7 1020.7 - 0.2 - - - - - - -
23/10:00pm 18.3 WSW 6 7 1020.6 - 0.2 - - - - - - -
23/09:30pm 18.7 SW 5 7 1020.6 - 0.2 - - - - - - -
23/09:00pm 18.8 WSW 5 5 1020.5 - 0.2 - - - - - - -
23/08:30pm 19.3 E 3 4 1020.4 - 0.2 - - - - - - -
23/08:00pm 19.9 E 3 4 1020.2 - 0.2 - - - - - - -
23/07:30pm 20.3 E 4 4 1020.1 - 0.2 - - - - - - -
23/07:00pm 20.6 E 5 6 1020.1 - 0.2 - - - - - - -
23/06:30pm 20.7 E 7 8 1019.7 - 0.2 - - - - - - -
23/06:00pm 20.8 E 7 8 1019.4 - 0.2 - - - - - - -
23/05:30pm 21.0 E 9 10 1019.2 - 0.2 - - - - - - -
23/05:00pm 21.3 E 7 8 1019.0 - 0.2 - - - - - - -
23/04:30pm 21.8 ENE 6 7 1018.8 - 0.2 - - - - - - -
23/04:00pm 22.3 ENE 7 8 1018.6 - 0.2 - - - - - - -
23/03:30pm 22.6 ENE 7 8 1018.5 - 0.2 - - - - - - -
23/03:00pm 22.8 E 7 8 1018.4 - 0.2 - - - - - - -
23/02:30pm 22.9 E 7 8 1018.5 - 0.2 - - - - - - -
23/02:00pm 22.9 E 6 7 1018.7 - 0.2 - - - - - - -
23/01:30pm 23.3 E 6 6 1018.8 - 0.2 - - - - - - -
23/01:00pm 23.2 ESE 6 7 1019.4 - 0.2 - - - - - - -
23/12:30pm 23.2 SE 6 7 1019.8 - 0.2 - - - - - - -
23/12:00pm 22.8 SSE 5 6 1020.3 - 0.2 - - - - - - -
23/11:30am 23.2 SSE 6 7 1020.8 - 0.2 - - - - - - -
23/11:00am 22.9 S 8 9 1021.3 - 0.2 - - - - - - -
23/10:30am 22.7 S 8 10 1021.7 - 0.0 - - - - - - -
23/10:00am 22.3 S 9 13 1022.1 - 0.0 - - - - - - -
23/09:30am 22.0 SSW 8 10 1022.2 - 0.0 - - - - - - -
23/09:00am 20.6 SSW 9 13 1022.2 - 0.0 - - - - - - -
23/08:30am 19.6 SSW 8 10 1022.2 - 0.0 - - - - - - -
23/08:00am 18.3 SSW 8 11 1022.0 - 0.0 - - - - - - -
23/07:30am 17.4 SSW 7 9 1021.8 - 0.0 - - - - - - -
23/07:00am 16.9 SSW 6 7 1021.6 - 0.0 - - - - - - -
23/06:30am 16.6 SSW 6 7 1021.2 - 0.0 - - - - - - -
23/06:00am 16.6 SW 5 7 1020.8 - 0.0 - - - - - - -
23/05:30am 16.7 SW 6 7 1020.6 - 0.0 - - - - - - -
23/05:00am 16.8 SW 7 9 1020.3 - 0.0 - - - - - - -
23/04:30am 16.9 SW 7 8 1020.3 - 0.0 - - - - - - -
23/04:00am 17.0 SW 7 8 1020.3 - 0.0 - - - - - - -
23/03:30am 17.1 SW 7 8 1020.3 - 0.0 - - - - - - -
23/03:00am 17.1 SW 7 8 1020.3 - 0.0 - - - - - - -
23/02:30am 17.2 SW 7 8 1020.5 - 0.0 - - - - - - -
23/02:00am 17.2 SW 7 8 1020.4 - 0.0 - - - - - - -
23/01:30am 17.5 SW 6 8 1020.7 - 0.0 - - - - - - -
23/01:00am 17.8 S 7 9 1020.7 - 0.0 - - - - - - -
23/12:30am 18.3 SSW 5 7 1020.7 - 0.0 - - - - - - -
23/12:00am 18.5 SSW 6 8 1021.1 - 0.0 - - - - - - -
 
Date/Time
EST
Temp
°C
Wind Pressure Rain since
9am
mm
Weather Cloud Vis
km
Sea
Height
m
Swell
Dir  Spd
kts
Gust
kts
hPa Trend Height
m
Period
s
Dir
22/11:30pm 18.3 SW 6 8 1021.4 - 0.0 - - - - - - -
22/11:00pm 18.4 SW 6 7 1021.8 - 0.0 - - - - - - -
22/10:30pm 18.5 SW 6 7 1021.7 - 0.0 - - - - - - -
22/10:00pm 18.9 SW 5 6 1021.6 - 0.0 - - - - - - -
22/09:30pm 19.1 S 6 7 1021.8 - 0.0 - - - - - - -
22/09:00pm 19.7 S 6 7 1021.7 - 0.0 - - - - - - -
22/08:30pm 19.9 S 6 7 1021.6 - 0.0 - - - - - - -
22/08:00pm 20.1 SSE 6 7 1021.4 - 0.0 - - - - - - -
22/07:30pm 20.5 SE 6 7 1021.1 - 0.0 - - - - - - -
22/07:00pm 20.6 SSE 7 8 1020.9 - 0.0 - - - - - - -
22/06:30pm 20.8 SSE 7 9 1020.6 - 0.0 - - - - - - -
22/06:00pm 21.0 SE 7 8 1020.4 - 0.0 - - - - - - -
22/05:30pm 21.2 SE 8 9 1020.1 - 0.0 - - - - - - -
22/05:00pm 21.6 SE 9 11 1020.0 - 0.0 - - - - - - -
22/04:30pm 22.1 ESE 8 9 1019.7 - 0.0 - - - - - - -
22/04:00pm 22.5 ESE 7 8 1019.6 - 0.0 - - - - - - -
22/03:30pm 22.6 ESE 8 9 1019.4 - 0.0 - - - - - - -
22/03:00pm 22.6 ESE 9 10 1019.4 - 0.0 - - - - - - -
22/02:30pm 23.0 SE 9 10 1019.5 - 0.0 - - - - - - -
22/02:00pm 23.2 SE 9 10 1019.6 - 0.0 - - - - - - -
22/01:30pm 23.4 SE 9 11 1019.8 - 0.0 - - - - - - -
22/01:00pm 23.3 SE 10 12 1020.0 - 0.0 - - - - - - -
22/12:30pm 22.9 SE 7 9 1020.4 - 0.0 - - - - - - -
22/12:00pm 23.1 SSE 8 9 1020.5 - 0.0 - - - - - - -
22/11:30am 23.2 SSE 8 9 1021.0 - 0.0 - - - - - - -
22/11:00am 23.1 S 8 10 1021.4 - 0.0 - - - - - - -
22/10:30am 22.6 S 9 11 1021.7 - 0.0 - - - - - - -
22/10:00am 22.4 S 10 12 1022.0 - 0.0 - - - - - - -
22/09:30am 21.9 S 9 13 1022.0 - 0.0 - - - - - - -
22/09:00am 21.0 SSW 8 13 1022.1 - 0.2 - - - - - - -
22/08:30am 19.8 SSW 8 11 1022.0 - 0.2 - - - - - - -
22/08:00am 18.6 SSW 7 10 1021.8 - 0.2 - - - - - - -
22/07:30am 17.6 SW 8 10 1021.5 - 0.2 - - - - - - -
22/07:00am 17.2 SW 7 9 1021.2 - 0.2 - - - - - - -
22/06:30am 17.0 SSW 7 10 1020.8 - 0.2 - - - - - - -
22/06:00am 16.9 SW 7 9 1020.5 - 0.2 - - - - - - -
22/05:30am 16.9 SW 7 9 1020.1 - 0.2 - - - - - - -
22/05:00am 17.1 SW 7 8 1019.9 - 0.2 - - - - - - -
22/04:30am 17.1 SW 6 7 1019.7 - 0.2 - - - - - - -
22/04:00am 17.2 SW 6 8 1019.7 - 0.2 - - - - - - -
22/03:30am 17.2 SSW 7 10 1019.6 - 0.2 - - - - - - -
22/03:00am 17.4 SSW 7 9 1019.6 - 0.2 - - - - - - -
22/02:30am 17.3 SSW 8 11 1019.5 - 0.2 - - - - - - -
22/02:00am 17.4 SSW 7 9 1019.6 - 0.2 - - - - - - -
22/01:30am 17.5 SSW 7 8 1019.8 - 0.2 - - - - - - -
22/01:00am 17.5 SW 6 7 1020.0 - 0.2 - - - - - - -
22/12:30am 17.5 SW 7 8 1019.9 - 0.2 - - - - - - -
22/12:00am 17.8 SW 7 8 1020.1 - 0.2 - - - - - - -
 
Date/Time
EST
Temp
°C
Wind Pressure Rain since
9am
mm
Weather Cloud Vis
km
Sea
Height
m
Swell
Dir  Spd
kts
Gust
kts
hPa Trend Height
m
Period
s
Dir
21/11:30pm 18.0 SW 7 8 1020.2 - 0.2 - - - - - - -
21/11:00pm 18.1 SW 7 8 1020.3 - 0.2 - - - - - - -
21/10:30pm 18.3 SW 6 8 1020.3 - 0.2 - - - - - - -
21/10:00pm 18.7 SSW 5 6 1020.3 - 0.2 - - - - - - -
21/09:30pm 19.2 S 6 7 1020.4 - 0.2 - - - - - - -
21/09:00pm 19.4 SSE 7 8 1020.3 - 0.2 - - - - - - -
21/08:30pm 19.6 SSE 7 8 1020.4 - 0.2 - - - - - - -
21/08:00pm 19.9 S 7 8 1020.2 - 0.2 - - - - - - -
21/07:30pm 20.2 SSE 7 8 1019.9 - 0.2 - - - - - - -
21/07:00pm 20.8 SE 7 8 1019.7 - 0.2 - - - - - - -
21/06:30pm 20.7 ESE 6 7 1019.3 - 0.2 - - - - - - -
21/06:00pm 20.8 E 5 6 1018.9 - 0.2 - - - - - - -
21/05:30pm 21.1 E 5 6 1018.6 - 0.2 - - - - - - -
21/05:00pm 21.5 E 5 6 1018.3 - 0.2 - - - - - - -
21/04:30pm 22.1 ESE 5 6 1017.7 - 0.2 - - - - - - -
21/04:00pm 22.5 ESE 5 6 1017.6 - 0.2 - - - - - - -
21/03:30pm 22.8 E 5 6 1017.6 - 0.2 - - - - - - -
21/03:00pm 23.5 SE 5 6 1017.5 - 0.2 - - - - - - -
21/02:30pm 23.2 SE 6 6 1017.4 - 0.2 - - - - - - -
21/02:00pm 23.4 ESE 5 6 1017.5 - 0.2 - - - - - - -

Other Formats:

Comma delimited format used in spreadsheet applications
http://www.bom.gov.au/fwo/IDQ60701/IDQ60701.95591.axf

JavaScript Object Notation format (JSON) in row-major order
http://www.bom.gov.au/fwo/IDQ60701/IDQ60701.95591.json